sensor_id;sensor_type;location;lat;lon;timestamp;P1;durP1;ratioP1;P2;durP2;ratioP2
67902;SDS011;54708;43.612;1.568;2023-12-20T00:00:39;40.08;;;22.42;;
67902;SDS011;54708;43.612;1.568;2023-12-20T00:03:04;36.65;;;23.80;;
67902;SDS011;54708;43.612;1.568;2023-12-20T00:05:30;35.65;;;23.58;;
67902;SDS011;54708;43.612;1.568;2023-12-20T00:07:59;34.88;;;23.10;;
67902;SDS011;54708;43.612;1.568;2023-12-20T00:10:24;40.85;;;26.52;;
67902;SDS011;54708;43.612;1.568;2023-12-20T00:12:50;46.70;;;28.60;;
67902;SDS011;54708;43.612;1.568;2023-12-20T00:15:15;43.20;;;24.95;;
67902;SDS011;54708;43.612;1.568;2023-12-20T00:17:40;35.42;;;22.30;;
67902;SDS011;54708;43.612;1.568;2023-12-20T00:20:06;34.88;;;22.40;;
67902;SDS011;54708;43.612;1.568;2023-12-20T00:22:32;40.80;;;23.30;;
67902;SDS011;54708;43.612;1.568;2023-12-20T00:24:57;37.03;;;23.77;;
67902;SDS011;54708;43.612;1.568;2023-12-20T00:27:22;42.65;;;24.73;;
67902;SDS011;54708;43.612;1.568;2023-12-20T00:29:48;39.05;;;25.05;;
67902;SDS011;54708;43.612;1.568;2023-12-20T00:32:15;47.63;;;27.63;;
67902;SDS011;54708;43.612;1.568;2023-12-20T00:34:40;50.55;;;30.60;;
67902;SDS011;54708;43.612;1.568;2023-12-20T00:37:06;43.42;;;27.02;;
67902;SDS011;54708;43.612;1.568;2023-12-20T00:39:31;47.10;;;29.98;;
67902;SDS011;54708;43.612;1.568;2023-12-20T00:41:58;47.97;;;28.15;;
67902;SDS011;54708;43.612;1.568;2023-12-20T00:44:23;39.00;;;23.67;;
67902;SDS011;54708;43.612;1.568;2023-12-20T00:46:48;39.92;;;23.10;;
67902;SDS011;54708;43.612;1.568;2023-12-20T00:49:14;42.33;;;23.08;;
67902;SDS011;54708;43.612;1.568;2023-12-20T00:51:40;38.35;;;24.90;;
67902;SDS011;54708;43.612;1.568;2023-12-20T00:54:05;40.67;;;24.58;;
67902;SDS011;54708;43.612;1.568;2023-12-20T00:56:31;38.55;;;26.48;;
67902;SDS011;54708;43.612;1.568;2023-12-20T00:58:56;43.95;;;24.55;;
67902;SDS011;54708;43.612;1.568;2023-12-20T01:01:21;36.25;;;24.17;;
67902;SDS011;54708;43.612;1.568;2023-12-20T01:03:47;37.88;;;22.88;;
67902;SDS011;54708;43.612;1.568;2023-12-20T01:06:13;41.70;;;26.05;;
67902;SDS011;54708;43.612;1.568;2023-12-20T01:08:38;46.55;;;25.42;;
67902;SDS011;54708;43.612;1.568;2023-12-20T01:11:04;36.60;;;23.98;;
67902;SDS011;54708;43.612;1.568;2023-12-20T01:13:30;44.58;;;27.05;;
67902;SDS011;54708;43.612;1.568;2023-12-20T01:15:56;41.15;;;25.13;;
67902;SDS011;54708;43.612;1.568;2023-12-20T01:18:21;43.85;;;26.05;;
67902;SDS011;54708;43.612;1.568;2023-12-20T01:20:46;43.80;;;26.85;;
67902;SDS011;54708;43.612;1.568;2023-12-20T01:23:12;45.03;;;25.52;;
67902;SDS011;54708;43.612;1.568;2023-12-20T01:25:37;39.53;;;23.63;;
67902;SDS011;54708;43.612;1.568;2023-12-20T01:28:04;41.17;;;25.08;;
67902;SDS011;54708;43.612;1.568;2023-12-20T01:30:29;36.55;;;23.15;;
67902;SDS011;54708;43.612;1.568;2023-12-20T01:32:54;36.20;;;23.27;;
67902;SDS011;54708;43.612;1.568;2023-12-20T01:35:20;44.10;;;24.80;;
67902;SDS011;54708;43.612;1.568;2023-12-20T01:37:45;36.50;;;24.25;;
67902;SDS011;54708;43.612;1.568;2023-12-20T01:40:11;41.70;;;23.15;;
67902;SDS011;54708;43.612;1.568;2023-12-20T01:42:36;39.58;;;24.40;;
67902;SDS011;54708;43.612;1.568;2023-12-20T01:45:02;41.25;;;24.63;;
67902;SDS011;54708;43.612;1.568;2023-12-20T01:47:27;33.95;;;23.45;;
67902;SDS011;54708;43.612;1.568;2023-12-20T01:49:53;34.20;;;23.67;;
67902;SDS011;54708;43.612;1.568;2023-12-20T01:52:19;36.95;;;22.88;;
67902;SDS011;54708;43.612;1.568;2023-12-20T01:54:45;33.42;;;21.58;;
67902;SDS011;54708;43.612;1.568;2023-12-20T01:57:10;37.92;;;22.02;;
67902;SDS011;54708;43.612;1.568;2023-12-20T01:59:36;34.60;;;21.98;;
67902;SDS011;54708;43.612;1.568;2023-12-20T02:02:03;30.70;;;20.73;;
67902;SDS011;54708;43.612;1.568;2023-12-20T02:04:28;41.70;;;22.27;;
67902;SDS011;54708;43.612;1.568;2023-12-20T02:06:54;32.78;;;21.02;;
67902;SDS011;54708;43.612;1.568;2023-12-20T02:09:20;29.70;;;21.58;;
67902;SDS011;54708;43.612;1.568;2023-12-20T02:11:47;29.20;;;20.38;;
67902;SDS011;54708;43.612;1.568;2023-12-20T02:14:13;27.63;;;18.48;;
67902;SDS011;54708;43.612;1.568;2023-12-20T02:16:38;28.27;;;20.42;;
67902;SDS011;54708;43.612;1.568;2023-12-20T02:19:04;30.05;;;19.60;;
67902;SDS011;54708;43.612;1.568;2023-12-20T02:21:34;29.20;;;19.58;;
67902;SDS011;54708;43.612;1.568;2023-12-20T02:24:00;31.83;;;19.40;;
67902;SDS011;54708;43.612;1.568;2023-12-20T02:26:26;29.60;;;19.60;;
67902;SDS011;54708;43.612;1.568;2023-12-20T02:28:51;26.67;;;18.58;;
67902;SDS011;54708;43.612;1.568;2023-12-20T02:31:17;26.80;;;18.65;;
67902;SDS011;54708;43.612;1.568;2023-12-20T02:33:46;26.48;;;19.13;;
67902;SDS011;54708;43.612;1.568;2023-12-20T02:36:11;24.65;;;17.48;;
67902;SDS011;54708;43.612;1.568;2023-12-20T02:38:37;25.35;;;18.05;;
67902;SDS011;54708;43.612;1.568;2023-12-20T02:41:02;24.30;;;17.77;;
67902;SDS011;54708;43.612;1.568;2023-12-20T02:43:28;25.10;;;17.27;;
67902;SDS011;54708;43.612;1.568;2023-12-20T02:45:53;23.98;;;17.08;;
67902;SDS011;54708;43.612;1.568;2023-12-20T02:48:19;24.98;;;17.50;;
67902;SDS011;54708;43.612;1.568;2023-12-20T02:50:45;27.55;;;16.33;;
67902;SDS011;54708;43.612;1.568;2023-12-20T02:53:11;23.10;;;16.63;;
67902;SDS011;54708;43.612;1.568;2023-12-20T02:55:37;25.45;;;17.70;;
67902;SDS011;54708;43.612;1.568;2023-12-20T02:58:02;23.70;;;16.10;;
67902;SDS011;54708;43.612;1.568;2023-12-20T03:00:27;26.02;;;17.52;;
67902;SDS011;54708;43.612;1.568;2023-12-20T03:02:53;26.45;;;18.30;;
67902;SDS011;54708;43.612;1.568;2023-12-20T03:05:18;27.75;;;17.83;;
67902;SDS011;54708;43.612;1.568;2023-12-20T03:07:43;27.85;;;18.50;;
67902;SDS011;54708;43.612;1.568;2023-12-20T03:10:09;24.67;;;16.63;;
67902;SDS011;54708;43.612;1.568;2023-12-20T03:12:35;25.10;;;17.33;;
67902;SDS011;54708;43.612;1.568;2023-12-20T03:15:00;26.40;;;17.52;;
67902;SDS011;54708;43.612;1.568;2023-12-20T03:17:25;26.65;;;18.65;;
67902;SDS011;54708;43.612;1.568;2023-12-20T03:19:51;23.73;;;17.02;;
67902;SDS011;54708;43.612;1.568;2023-12-20T03:22:16;26.88;;;17.23;;
67902;SDS011;54708;43.612;1.568;2023-12-20T03:24:41;24.95;;;17.65;;
67902;SDS011;54708;43.612;1.568;2023-12-20T03:27:07;27.02;;;17.23;;
67902;SDS011;54708;43.612;1.568;2023-12-20T03:29:32;25.83;;;17.77;;
67902;SDS011;54708;43.612;1.568;2023-12-20T03:31:57;29.48;;;18.92;;
67902;SDS011;54708;43.612;1.568;2023-12-20T03:34:23;25.23;;;18.50;;
67902;SDS011;54708;43.612;1.568;2023-12-20T03:36:49;24.75;;;18.25;;
67902;SDS011;54708;43.612;1.568;2023-12-20T03:39:14;25.50;;;18.75;;
67902;SDS011;54708;43.612;1.568;2023-12-20T03:41:39;29.92;;;18.83;;
67902;SDS011;54708;43.612;1.568;2023-12-20T03:44:05;29.55;;;19.15;;
67902;SDS011;54708;43.612;1.568;2023-12-20T03:46:30;29.98;;;20.88;;
67902;SDS011;54708;43.612;1.568;2023-12-20T03:48:56;33.45;;;20.05;;
67902;SDS011;54708;43.612;1.568;2023-12-20T03:51:22;31.30;;;20.75;;
67902;SDS011;54708;43.612;1.568;2023-12-20T03:53:47;31.42;;;21.52;;
67902;SDS011;54708;43.612;1.568;2023-12-20T03:56:12;28.83;;;19.20;;
67902;SDS011;54708;43.612;1.568;2023-12-20T03:58:38;32.15;;;20.48;;
67902;SDS011;54708;43.612;1.568;2023-12-20T04:01:03;31.00;;;21.05;;
67902;SDS011;54708;43.612;1.568;2023-12-20T04:03:35;35.15;;;21.73;;
67902;SDS011;54708;43.612;1.568;2023-12-20T04:06:00;38.75;;;22.63;;
67902;SDS011;54708;43.612;1.568;2023-12-20T04:08:25;37.53;;;22.00;;
67902;SDS011;54708;43.612;1.568;2023-12-20T04:10:51;36.88;;;23.02;;
67902;SDS011;54708;43.612;1.568;2023-12-20T04:13:16;35.80;;;23.30;;
67902;SDS011;54708;43.612;1.568;2023-12-20T04:15:41;36.80;;;22.58;;
67902;SDS011;54708;43.612;1.568;2023-12-20T04:18:07;37.30;;;24.10;;
67902;SDS011;54708;43.612;1.568;2023-12-20T04:20:33;35.55;;;23.20;;
67902;SDS011;54708;43.612;1.568;2023-12-20T04:22:58;33.92;;;23.70;;
67902;SDS011;54708;43.612;1.568;2023-12-20T04:25:23;35.40;;;22.27;;
67902;SDS011;54708;43.612;1.568;2023-12-20T04:27:49;35.55;;;21.95;;
67902;SDS011;54708;43.612;1.568;2023-12-20T04:30:14;32.83;;;20.52;;
67902;SDS011;54708;43.612;1.568;2023-12-20T04:32:40;33.83;;;21.02;;
67902;SDS011;54708;43.612;1.568;2023-12-20T04:35:05;31.15;;;20.83;;
67902;SDS011;54708;43.612;1.568;2023-12-20T04:37:30;30.83;;;20.52;;
67902;SDS011;54708;43.612;1.568;2023-12-20T04:39:56;31.50;;;19.95;;
67902;SDS011;54708;43.612;1.568;2023-12-20T04:42:21;33.08;;;20.88;;
67902;SDS011;54708;43.612;1.568;2023-12-20T04:44:47;33.33;;;20.92;;
67902;SDS011;54708;43.612;1.568;2023-12-20T04:47:12;27.20;;;18.08;;
67902;SDS011;54708;43.612;1.568;2023-12-20T04:49:37;31.13;;;19.42;;
67902;SDS011;54708;43.612;1.568;2023-12-20T04:52:03;29.95;;;18.55;;
67902;SDS011;54708;43.612;1.568;2023-12-20T04:54:28;30.92;;;18.27;;
67902;SDS011;54708;43.612;1.568;2023-12-20T04:56:54;28.95;;;18.83;;
67902;SDS011;54708;43.612;1.568;2023-12-20T04:59:19;31.17;;;20.45;;
67902;SDS011;54708;43.612;1.568;2023-12-20T05:01:45;29.60;;;19.42;;
67902;SDS011;54708;43.612;1.568;2023-12-20T05:04:10;26.95;;;18.65;;
67902;SDS011;54708;43.612;1.568;2023-12-20T05:06:35;32.10;;;19.30;;
67902;SDS011;54708;43.612;1.568;2023-12-20T05:09:01;32.90;;;19.58;;
67902;SDS011;54708;43.612;1.568;2023-12-20T05:11:26;34.40;;;19.73;;
67902;SDS011;54708;43.612;1.568;2023-12-20T05:13:51;31.13;;;19.45;;
67902;SDS011;54708;43.612;1.568;2023-12-20T05:16:17;32.22;;;18.52;;
67902;SDS011;54708;43.612;1.568;2023-12-20T05:18:47;30.90;;;19.67;;
67902;SDS011;54708;43.612;1.568;2023-12-20T05:21:12;27.20;;;18.42;;
67902;SDS011;54708;43.612;1.568;2023-12-20T05:23:38;30.55;;;19.02;;
67902;SDS011;54708;43.612;1.568;2023-12-20T05:26:03;28.60;;;18.27;;
67902;SDS011;54708;43.612;1.568;2023-12-20T05:28:28;30.63;;;18.73;;
67902;SDS011;54708;43.612;1.568;2023-12-20T05:30:54;31.67;;;18.52;;
67902;SDS011;54708;43.612;1.568;2023-12-20T05:33:19;29.95;;;18.23;;
67902;SDS011;54708;43.612;1.568;2023-12-20T05:35:44;23.10;;;16.02;;
67902;SDS011;54708;43.612;1.568;2023-12-20T05:38:10;26.08;;;15.88;;
67902;SDS011;54708;43.612;1.568;2023-12-20T05:40:35;26.08;;;15.68;;
67902;SDS011;54708;43.612;1.568;2023-12-20T05:43:01;22.33;;;14.57;;
67902;SDS011;54708;43.612;1.568;2023-12-20T05:45:27;27.27;;;15.90;;
67902;SDS011;54708;43.612;1.568;2023-12-20T05:47:52;20.77;;;13.07;;
67902;SDS011;54708;43.612;1.568;2023-12-20T05:50:17;20.55;;;12.95;;
67902;SDS011;54708;43.612;1.568;2023-12-20T05:52:43;19.67;;;12.38;;
67902;SDS011;54708;43.612;1.568;2023-12-20T05:55:09;20.00;;;11.65;;
67902;SDS011;54708;43.612;1.568;2023-12-20T05:57:34;12.80;;;9.60;;
67902;SDS011;54708;43.612;1.568;2023-12-20T06:00:00;16.80;;;10.43;;
67902;SDS011;54708;43.612;1.568;2023-12-20T06:02:25;18.23;;;9.93;;
67902;SDS011;54708;43.612;1.568;2023-12-20T06:04:50;15.10;;;10.57;;
67902;SDS011;54708;43.612;1.568;2023-12-20T06:07:16;18.52;;;10.32;;
67902;SDS011;54708;43.612;1.568;2023-12-20T06:09:42;19.55;;;10.80;;
67902;SDS011;54708;43.612;1.568;2023-12-20T06:12:07;15.02;;;10.10;;
67902;SDS011;54708;43.612;1.568;2023-12-20T06:14:33;19.33;;;10.32;;
67902;SDS011;54708;43.612;1.568;2023-12-20T06:17:00;17.23;;;10.10;;
67902;SDS011;54708;43.612;1.568;2023-12-20T06:19:26;20.63;;;12.10;;
67902;SDS011;54708;43.612;1.568;2023-12-20T06:21:51;16.02;;;10.55;;
67902;SDS011;54708;43.612;1.568;2023-12-20T06:24:17;17.70;;;10.70;;
67902;SDS011;54708;43.612;1.568;2023-12-20T06:26:42;16.52;;;11.27;;
67902;SDS011;54708;43.612;1.568;2023-12-20T06:29:07;17.38;;;11.50;;
67902;SDS011;54708;43.612;1.568;2023-12-20T06:31:33;20.98;;;11.82;;
67902;SDS011;54708;43.612;1.568;2023-12-20T06:33:59;24.48;;;12.27;;
67902;SDS011;54708;43.612;1.568;2023-12-20T06:36:25;17.55;;;11.77;;
67902;SDS011;54708;43.612;1.568;2023-12-20T06:38:51;17.55;;;11.10;;
67902;SDS011;54708;43.612;1.568;2023-12-20T06:41:17;17.50;;;10.57;;
67902;SDS011;54708;43.612;1.568;2023-12-20T06:43:42;16.15;;;10.45;;
67902;SDS011;54708;43.612;1.568;2023-12-20T06:46:08;19.15;;;10.93;;
67902;SDS011;54708;43.612;1.568;2023-12-20T06:48:34;14.75;;;10.40;;
67902;SDS011;54708;43.612;1.568;2023-12-20T06:51:00;16.90;;;12.57;;
67902;SDS011;54708;43.612;1.568;2023-12-20T06:53:27;15.02;;;10.55;;
67902;SDS011;54708;43.612;1.568;2023-12-20T06:55:52;20.08;;;11.85;;
67902;SDS011;54708;43.612;1.568;2023-12-20T06:58:17;17.08;;;10.45;;
67902;SDS011;54708;43.612;1.568;2023-12-20T07:00:43;16.30;;;9.75;;
67902;SDS011;54708;43.612;1.568;2023-12-20T07:03:09;14.77;;;9.38;;
67902;SDS011;54708;43.612;1.568;2023-12-20T07:05:34;16.45;;;9.52;;
67902;SDS011;54708;43.612;1.568;2023-12-20T07:07:59;14.23;;;9.15;;
67902;SDS011;54708;43.612;1.568;2023-12-20T07:10:25;13.25;;;8.20;;
67902;SDS011;54708;43.612;1.568;2023-12-20T07:12:50;8.02;;;6.10;;
67902;SDS011;54708;43.612;1.568;2023-12-20T07:15:16;6.70;;;4.97;;
67902;SDS011;54708;43.612;1.568;2023-12-20T07:17:41;5.72;;;4.53;;
67902;SDS011;54708;43.612;1.568;2023-12-20T07:20:08;5.97;;;4.88;;
67902;SDS011;54708;43.612;1.568;2023-12-20T07:22:35;7.40;;;4.90;;
67902;SDS011;54708;43.612;1.568;2023-12-20T07:25:01;6.55;;;5.28;;
67902;SDS011;54708;43.612;1.568;2023-12-20T07:27:27;7.50;;;4.50;;
67902;SDS011;54708;43.612;1.568;2023-12-20T07:29:52;5.15;;;4.32;;
67902;SDS011;54708;43.612;1.568;2023-12-20T07:32:18;6.80;;;4.55;;
67902;SDS011;54708;43.612;1.568;2023-12-20T07:34:43;5.63;;;4.47;;
67902;SDS011;54708;43.612;1.568;2023-12-20T07:37:09;4.65;;;3.85;;
67902;SDS011;54708;43.612;1.568;2023-12-20T07:39:36;6.13;;;4.45;;
67902;SDS011;54708;43.612;1.568;2023-12-20T07:42:02;5.85;;;4.50;;
67902;SDS011;54708;43.612;1.568;2023-12-20T07:44:28;6.05;;;4.68;;
67902;SDS011;54708;43.612;1.568;2023-12-20T07:46:53;4.53;;;4.03;;
67902;SDS011;54708;43.612;1.568;2023-12-20T07:49:19;5.47;;;4.13;;
67902;SDS011;54708;43.612;1.568;2023-12-20T07:51:45;4.43;;;4.03;;
67902;SDS011;54708;43.612;1.568;2023-12-20T07:54:10;4.20;;;3.80;;
67902;SDS011;54708;43.612;1.568;2023-12-20T07:56:36;4.63;;;4.18;;
67902;SDS011;54708;43.612;1.568;2023-12-20T07:59:01;4.72;;;4.03;;
67902;SDS011;54708;43.612;1.568;2023-12-20T08:01:26;4.50;;;4.10;;
67902;SDS011;54708;43.612;1.568;2023-12-20T08:03:52;4.68;;;3.92;;
67902;SDS011;54708;43.612;1.568;2023-12-20T08:06:17;6.60;;;4.93;;
67902;SDS011;54708;43.612;1.568;2023-12-20T08:08:43;4.50;;;3.80;;
67902;SDS011;54708;43.612;1.568;2023-12-20T08:11:08;3.65;;;3.13;;
67902;SDS011;54708;43.612;1.568;2023-12-20T08:13:33;3.70;;;3.40;;
67902;SDS011;54708;43.612;1.568;2023-12-20T08:15:59;3.58;;;3.25;;
67902;SDS011;54708;43.612;1.568;2023-12-20T08:18:24;5.78;;;3.97;;
67902;SDS011;54708;43.612;1.568;2023-12-20T08:20:50;3.17;;;2.88;;
67902;SDS011;54708;43.612;1.568;2023-12-20T08:23:17;3.40;;;3.10;;
67902;SDS011;54708;43.612;1.568;2023-12-20T08:25:43;3.63;;;3.08;;
67902;SDS011;54708;43.612;1.568;2023-12-20T08:28:08;3.42;;;2.85;;
67902;SDS011;54708;43.612;1.568;2023-12-20T08:30:34;3.50;;;3.00;;
67902;SDS011;54708;43.612;1.568;2023-12-20T08:32:59;3.72;;;3.30;;
67902;SDS011;54708;43.612;1.568;2023-12-20T08:35:25;10.40;;;3.00;;
67902;SDS011;54708;43.612;1.568;2023-12-20T08:37:50;3.83;;;3.47;;
67902;SDS011;54708;43.612;1.568;2023-12-20T08:40:15;2.50;;;2.30;;
67902;SDS011;54708;43.612;1.568;2023-12-20T08:42:41;3.75;;;2.97;;
67902;SDS011;54708;43.612;1.568;2023-12-20T08:45:06;2.80;;;2.53;;
67902;SDS011;54708;43.612;1.568;2023-12-20T08:47:32;4.50;;;2.80;;
67902;SDS011;54708;43.612;1.568;2023-12-20T08:49:57;18.80;;;3.47;;
67902;SDS011;54708;43.612;1.568;2023-12-20T08:52:24;2.20;;;2.00;;
67902;SDS011;54708;43.612;1.568;2023-12-20T08:54:52;4.55;;;2.42;;
67902;SDS011;54708;43.612;1.568;2023-12-20T08:57:19;2.30;;;2.10;;
67902;SDS011;54708;43.612;1.568;2023-12-20T08:59:46;2.53;;;2.30;;
67902;SDS011;54708;43.612;1.568;2023-12-20T09:02:12;2.30;;;2.10;;
67902;SDS011;54708;43.612;1.568;2023-12-20T09:04:38;3.35;;;2.15;;
67902;SDS011;54708;43.612;1.568;2023-12-20T09:07:04;2.55;;;2.35;;
67902;SDS011;54708;43.612;1.568;2023-12-20T09:09:29;2.55;;;2.35;;
67902;SDS011;54708;43.612;1.568;2023-12-20T09:11:57;2.90;;;2.65;;
67902;SDS011;54708;43.612;1.568;2023-12-20T09:14:22;2.45;;;2.22;;
67902;SDS011;54708;43.612;1.568;2023-12-20T09:16:47;6.78;;;3.38;;
67902;SDS011;54708;43.612;1.568;2023-12-20T09:19:15;4.78;;;3.97;;
67902;SDS011;54708;43.612;1.568;2023-12-20T09:21:41;6.22;;;4.00;;
67902;SDS011;54708;43.612;1.568;2023-12-20T09:24:06;6.57;;;4.72;;
67902;SDS011;54708;43.612;1.568;2023-12-20T09:26:32;6.22;;;5.22;;
67902;SDS011;54708;43.612;1.568;2023-12-20T09:28:57;9.38;;;5.57;;
67902;SDS011;54708;43.612;1.568;2023-12-20T09:31:22;8.98;;;5.30;;
67902;SDS011;54708;43.612;1.568;2023-12-20T09:33:48;11.55;;;6.10;;
67902;SDS011;54708;43.612;1.568;2023-12-20T09:36:13;8.57;;;6.43;;
67902;SDS011;54708;43.612;1.568;2023-12-20T09:38:39;8.18;;;6.32;;
67902;SDS011;54708;43.612;1.568;2023-12-20T09:41:04;7.63;;;5.90;;
67902;SDS011;54708;43.612;1.568;2023-12-20T09:43:31;9.65;;;5.97;;
67902;SDS011;54708;43.612;1.568;2023-12-20T09:45:58;7.65;;;5.55;;
67902;SDS011;54708;43.612;1.568;2023-12-20T09:48:25;8.35;;;5.00;;
67902;SDS011;54708;43.612;1.568;2023-12-20T09:50:51;6.05;;;4.45;;
67902;SDS011;54708;43.612;1.568;2023-12-20T09:53:17;7.30;;;5.30;;
67902;SDS011;54708;43.612;1.568;2023-12-20T09:55:43;6.28;;;4.63;;
67902;SDS011;54708;43.612;1.568;2023-12-20T09:58:08;5.53;;;4.28;;
67902;SDS011;54708;43.612;1.568;2023-12-20T10:00:37;8.05;;;4.55;;
67902;SDS011;54708;43.612;1.568;2023-12-20T10:03:02;6.10;;;3.85;;
67902;SDS011;54708;43.612;1.568;2023-12-20T10:05:29;5.72;;;4.85;;
67902;SDS011;54708;43.612;1.568;2023-12-20T10:07:56;6.05;;;3.75;;
67902;SDS011;54708;43.612;1.568;2023-12-20T10:10:21;5.82;;;3.38;;
67902;SDS011;54708;43.612;1.568;2023-12-20T10:15:32;3.70;;;2.83;;
67902;SDS011;54708;43.612;1.568;2023-12-20T10:17:58;2.53;;;2.30;;
67902;SDS011;54708;43.612;1.568;2023-12-20T10:20:24;6.32;;;2.22;;
67902;SDS011;54708;43.612;1.568;2023-12-20T10:22:49;9.07;;;2.55;;
67902;SDS011;54708;43.612;1.568;2023-12-20T10:25:18;4.38;;;2.20;;
67902;SDS011;54708;43.612;1.568;2023-12-20T10:27:44;5.50;;;2.70;;
67902;SDS011;54708;43.612;1.568;2023-12-20T10:30:10;8.60;;;2.88;;
67902;SDS011;54708;43.612;1.568;2023-12-20T10:32:35;5.32;;;2.97;;
67902;SDS011;54708;43.612;1.568;2023-12-20T10:35:01;5.75;;;2.80;;
67902;SDS011;54708;43.612;1.568;2023-12-20T10:37:27;5.72;;;2.58;;
67902;SDS011;54708;43.612;1.568;2023-12-20T10:39:53;7.88;;;3.20;;
67902;SDS011;54708;43.612;1.568;2023-12-20T10:42:22;7.05;;;3.03;;
67902;SDS011;54708;43.612;1.568;2023-12-20T10:44:50;12.43;;;3.53;;
67902;SDS011;54708;43.612;1.568;2023-12-20T10:47:16;6.65;;;4.20;;
67902;SDS011;54708;43.612;1.568;2023-12-20T10:49:42;9.52;;;4.30;;
67902;SDS011;54708;43.612;1.568;2023-12-20T10:52:07;5.57;;;3.42;;
67902;SDS011;54708;43.612;1.568;2023-12-20T10:54:34;2.88;;;2.45;;
67902;SDS011;54708;43.612;1.568;2023-12-20T10:56:59;4.13;;;3.08;;
67902;SDS011;54708;43.612;1.568;2023-12-20T10:59:25;7.50;;;2.85;;
67902;SDS011;54708;43.612;1.568;2023-12-20T11:01:53;4.88;;;2.30;;
67902;SDS011;54708;43.612;1.568;2023-12-20T11:04:21;2.58;;;2.10;;
67902;SDS011;54708;43.612;1.568;2023-12-20T11:06:56;3.70;;;2.53;;
67902;SDS011;54708;43.612;1.568;2023-12-20T11:09:28;2.60;;;2.08;;
67902;SDS011;54708;43.612;1.568;2023-12-20T11:12:13;1.90;;;1.70;;
67902;SDS011;54708;43.612;1.568;2023-12-20T11:14:52;5.15;;;1.95;;
67902;SDS011;54708;43.612;1.568;2023-12-20T11:17:19;4.00;;;1.77;;
67902;SDS011;54708;43.612;1.568;2023-12-20T11:22:21;2.10;;;1.75;;
67902;SDS011;54708;43.612;1.568;2023-12-20T11:24:48;2.63;;;1.65;;
67902;SDS011;54708;43.612;1.568;2023-12-20T11:27:13;4.57;;;2.03;;
67902;SDS011;54708;43.612;1.568;2023-12-20T11:29:39;3.70;;;1.50;;
67902;SDS011;54708;43.612;1.568;2023-12-20T11:34:56;2.92;;;1.67;;
67902;SDS011;54708;43.612;1.568;2023-12-20T11:37:28;4.07;;;1.67;;
67902;SDS011;54708;43.612;1.568;2023-12-20T11:40:05;1.42;;;1.33;;
67902;SDS011;54708;43.612;1.568;2023-12-20T11:42:40;2.22;;;1.70;;
67902;SDS011;54708;43.612;1.568;2023-12-20T11:45:10;4.13;;;1.75;;
67902;SDS011;54708;43.612;1.568;2023-12-20T11:47:36;2.33;;;1.35;;
67902;SDS011;54708;43.612;1.568;2023-12-20T11:50:02;4.82;;;1.63;;
67902;SDS011;54708;43.612;1.568;2023-12-20T11:52:29;3.22;;;1.60;;
67902;SDS011;54708;43.612;1.568;2023-12-20T11:54:55;5.32;;;1.67;;
67902;SDS011;54708;43.612;1.568;2023-12-20T11:57:20;7.53;;;1.63;;
67902;SDS011;54708;43.612;1.568;2023-12-20T11:59:46;1.73;;;1.30;;
67902;SDS011;54708;43.612;1.568;2023-12-20T12:02:11;3.55;;;1.20;;
67902;SDS011;54708;43.612;1.568;2023-12-20T12:04:37;2.63;;;1.83;;
67902;SDS011;54708;43.612;1.568;2023-12-20T12:07:02;6.40;;;1.75;;
67902;SDS011;54708;43.612;1.568;2023-12-20T12:09:28;4.85;;;1.20;;
67902;SDS011;54708;43.612;1.568;2023-12-20T12:11:54;9.40;;;1.70;;
67902;SDS011;54708;43.612;1.568;2023-12-20T12:14:19;4.97;;;1.40;;
67902;SDS011;54708;43.612;1.568;2023-12-20T12:16:45;6.32;;;2.15;;
67902;SDS011;54708;43.612;1.568;2023-12-20T12:19:23;1.73;;;1.27;;
67902;SDS011;54708;43.612;1.568;2023-12-20T12:21:50;1.42;;;1.27;;
67902;SDS011;54708;43.612;1.568;2023-12-20T12:24:19;5.60;;;1.17;;
67902;SDS011;54708;43.612;1.568;2023-12-20T12:26:49;3.75;;;1.55;;
67902;SDS011;54708;43.612;1.568;2023-12-20T12:29:15;2.78;;;1.40;;
67902;SDS011;54708;43.612;1.568;2023-12-20T12:31:41;2.55;;;1.52;;
67902;SDS011;54708;43.612;1.568;2023-12-20T12:34:06;5.22;;;1.83;;
67902;SDS011;54708;43.612;1.568;2023-12-20T12:36:34;4.45;;;1.33;;
67902;SDS011;54708;43.612;1.568;2023-12-20T12:39:02;4.00;;;1.70;;
67902;SDS011;54708;43.612;1.568;2023-12-20T12:41:29;5.45;;;1.98;;
67902;SDS011;54708;43.612;1.568;2023-12-20T12:43:54;10.80;;;2.15;;
67902;SDS011;54708;43.612;1.568;2023-12-20T12:46:19;5.85;;;2.20;;
67902;SDS011;54708;43.612;1.568;2023-12-20T12:48:45;7.03;;;2.53;;
67902;SDS011;54708;43.612;1.568;2023-12-20T12:51:11;4.50;;;1.77;;
67902;SDS011;54708;43.612;1.568;2023-12-20T12:53:38;7.07;;;1.73;;
67902;SDS011;54708;43.612;1.568;2023-12-20T12:56:04;3.90;;;1.92;;
67902;SDS011;54708;43.612;1.568;2023-12-20T12:58:29;2.67;;;2.00;;
67902;SDS011;54708;43.612;1.568;2023-12-20T13:00:55;6.47;;;1.75;;
67902;SDS011;54708;43.612;1.568;2023-12-20T13:03:20;5.78;;;1.98;;
67902;SDS011;54708;43.612;1.568;2023-12-20T13:05:47;4.07;;;1.83;;
67902;SDS011;54708;43.612;1.568;2023-12-20T13:08:13;2.72;;;1.65;;
67902;SDS011;54708;43.612;1.568;2023-12-20T13:10:39;4.47;;;1.48;;
67902;SDS011;54708;43.612;1.568;2023-12-20T13:13:04;4.13;;;2.67;;
67902;SDS011;54708;43.612;1.568;2023-12-20T13:15:30;4.35;;;1.80;;
67902;SDS011;54708;43.612;1.568;2023-12-20T13:17:55;4.28;;;2.47;;
67902;SDS011;54708;43.612;1.568;2023-12-20T13:20:21;3.78;;;1.80;;
67902;SDS011;54708;43.612;1.568;2023-12-20T13:22:47;5.65;;;2.70;;
67902;SDS011;54708;43.612;1.568;2023-12-20T13:25:13;2.17;;;1.33;;
67902;SDS011;54708;43.612;1.568;2023-12-20T13:27:38;9.15;;;2.65;;
67902;SDS011;54708;43.612;1.568;2023-12-20T13:30:04;4.70;;;1.63;;
67902;SDS011;54708;43.612;1.568;2023-12-20T13:32:30;6.57;;;2.10;;
67902;SDS011;54708;43.612;1.568;2023-12-20T13:34:56;5.63;;;2.10;;
67902;SDS011;54708;43.612;1.568;2023-12-20T13:37:21;6.90;;;2.38;;
67902;SDS011;54708;43.612;1.568;2023-12-20T13:39:47;3.53;;;1.80;;
67902;SDS011;54708;43.612;1.568;2023-12-20T13:42:12;4.70;;;2.20;;
67902;SDS011;54708;43.612;1.568;2023-12-20T13:44:38;5.30;;;2.05;;
67902;SDS011;54708;43.612;1.568;2023-12-20T13:47:03;4.35;;;1.90;;
67902;SDS011;54708;43.612;1.568;2023-12-20T13:49:29;6.15;;;1.85;;
67902;SDS011;54708;43.612;1.568;2023-12-20T13:51:54;2.45;;;1.48;;
67902;SDS011;54708;43.612;1.568;2023-12-20T13:54:20;7.00;;;1.65;;
67902;SDS011;54708;43.612;1.568;2023-12-20T13:56:47;6.35;;;2.30;;
67902;SDS011;54708;43.612;1.568;2023-12-20T13:59:12;6.32;;;2.15;;
67902;SDS011;54708;43.612;1.568;2023-12-20T14:01:39;11.23;;;2.58;;
67902;SDS011;54708;43.612;1.568;2023-12-20T14:04:04;5.25;;;1.70;;
67902;SDS011;54708;43.612;1.568;2023-12-20T14:06:29;6.63;;;1.60;;
67902;SDS011;54708;43.612;1.568;2023-12-20T14:08:55;6.47;;;2.47;;
67902;SDS011;54708;43.612;1.568;2023-12-20T14:11:20;5.88;;;2.28;;
67902;SDS011;54708;43.612;1.568;2023-12-20T14:13:46;5.78;;;2.28;;
67902;SDS011;54708;43.612;1.568;2023-12-20T14:16:11;5.28;;;1.92;;
67902;SDS011;54708;43.612;1.568;2023-12-20T14:18:37;6.35;;;1.63;;
67902;SDS011;54708;43.612;1.568;2023-12-20T14:21:03;4.50;;;2.53;;
67902;SDS011;54708;43.612;1.568;2023-12-20T14:23:28;4.80;;;2.08;;
67902;SDS011;54708;43.612;1.568;2023-12-20T14:25:53;9.70;;;2.25;;
67902;SDS011;54708;43.612;1.568;2023-12-20T14:28:21;4.25;;;1.85;;
67902;SDS011;54708;43.612;1.568;2023-12-20T14:30:46;6.40;;;2.08;;
67902;SDS011;54708;43.612;1.568;2023-12-20T14:33:12;6.15;;;2.40;;
67902;SDS011;54708;43.612;1.568;2023-12-20T14:35:37;4.68;;;1.90;;